sensor_id;sensor_type;location;lat;lon;timestamp;pressure;altitude;pressure_sealevel;temperature;humidity
23473;BME280;11909;52.516;13.564;2022-12-18T00:01:19;102647.63;;;-6.04;97.57
23473;BME280;11909;52.516;13.564;2022-12-18T00:03:49;102663.63;;;-5.93;96.61
23473;BME280;11909;52.516;13.564;2022-12-18T00:06:17;102662.34;;;-6.21;96.00
23473;BME280;11909;52.516;13.564;2022-12-18T00:08:46;102660.75;;;-6.24;96.59
23473;BME280;11909;52.516;13.564;2022-12-18T00:11:15;102668.06;;;-6.14;96.39
23473;BME280;11909;52.516;13.564;2022-12-18T00:13:44;102668.91;;;-6.02;96.30
23473;BME280;11909;52.516;13.564;2022-12-18T00:16:15;102680.56;;;-6.15;96.50
23473;BME280;11909;52.516;13.564;2022-12-18T00:18:44;102682.63;;;-6.07;97.32
23473;BME280;11909;52.516;13.564;2022-12-18T00:21:14;102679.00;;;-6.17;96.04
23473;BME280;11909;52.516;13.564;2022-12-18T00:23:43;102679.25;;;-6.21;96.62
23473;BME280;11909;52.516;13.564;2022-12-18T00:26:14;102674.34;;;-6.27;97.19
23473;BME280;11909;52.516;13.564;2022-12-18T00:28:43;102669.84;;;-6.38;97.09
23473;BME280;11909;52.516;13.564;2022-12-18T00:31:13;102669.03;;;-6.38;98.18
23473;BME280;11909;52.516;13.564;2022-12-18T00:33:42;102666.00;;;-6.34;98.46
23473;BME280;11909;52.516;13.564;2022-12-18T00:36:12;102666.72;;;-6.31;98.80
23473;BME280;11909;52.516;13.564;2022-12-18T00:38:41;102664.28;;;-6.35;99.28
23473;BME280;11909;52.516;13.564;2022-12-18T00:41:10;102649.00;;;-6.32;99.39
23473;BME280;11909;52.516;13.564;2022-12-18T00:43:39;102653.72;;;-6.13;99.61
23473;BME280;11909;52.516;13.564;2022-12-18T00:46:06;102652.25;;;-6.29;99.15
23473;BME280;11909;52.516;13.564;2022-12-18T00:48:35;102656.88;;;-6.31;99.24
23473;BME280;11909;52.516;13.564;2022-12-18T00:51:02;102657.47;;;-6.16;99.17
23473;BME280;11909;52.516;13.564;2022-12-18T00:53:30;102656.63;;;-6.16;99.25
23473;BME280;11909;52.516;13.564;2022-12-18T00:55:59;102652.00;;;-6.26;98.99
23473;BME280;11909;52.516;13.564;2022-12-18T00:58:27;102646.31;;;-6.32;99.46
23473;BME280;11909;52.516;13.564;2022-12-18T01:00:54;102645.22;;;-6.30;99.30
23473;BME280;11909;52.516;13.564;2022-12-18T01:03:22;102640.59;;;-6.39;99.73
23473;BME280;11909;52.516;13.564;2022-12-18T01:05:50;102628.06;;;-6.39;100.00
23473;BME280;11909;52.516;13.564;2022-12-18T01:08:17;102636.34;;;-6.42;100.00
23473;BME280;11909;52.516;13.564;2022-12-18T01:10:45;102634.41;;;-6.40;100.00
23473;BME280;11909;52.516;13.564;2022-12-18T01:13:14;102646.78;;;-6.39;100.00
23473;BME280;11909;52.516;13.564;2022-12-18T01:15:48;102648.22;;;-6.35;100.00
23473;BME280;11909;52.516;13.564;2022-12-18T01:18:15;102663.56;;;-6.25;100.00
23473;BME280;11909;52.516;13.564;2022-12-18T01:20:43;102659.53;;;-6.08;99.42
23473;BME280;11909;52.516;13.564;2022-12-18T01:23:11;102662.47;;;-6.23;98.90
23473;BME280;11909;52.516;13.564;2022-12-18T01:25:38;102668.75;;;-6.24;99.39
23473;BME280;11909;52.516;13.564;2022-12-18T01:28:06;102674.75;;;-6.31;99.36
23473;BME280;11909;52.516;13.564;2022-12-18T01:30:35;102683.97;;;-6.24;99.52
23473;BME280;11909;52.516;13.564;2022-12-18T01:33:03;102687.47;;;-6.24;98.35
23473;BME280;11909;52.516;13.564;2022-12-18T01:35:31;102679.47;;;-6.24;98.76
23473;BME280;11909;52.516;13.564;2022-12-18T01:37:59;102678.00;;;-6.28;98.32
23473;BME280;11909;52.516;13.564;2022-12-18T01:40:26;102683.50;;;-6.29;98.81
23473;BME280;11909;52.516;13.564;2022-12-18T01:42:54;102687.72;;;-6.27;99.08
23473;BME280;11909;52.516;13.564;2022-12-18T01:45:25;102682.50;;;-6.17;98.74
23473;BME280;11909;52.516;13.564;2022-12-18T01:47:57;102687.84;;;-6.28;98.71
23473;BME280;11909;52.516;13.564;2022-12-18T01:50:29;102681.06;;;-6.32;98.77
23473;BME280;11909;52.516;13.564;2022-12-18T01:53:01;102681.91;;;-6.32;99.30
23473;BME280;11909;52.516;13.564;2022-12-18T01:55:32;102681.91;;;-6.32;99.38
23473;BME280;11909;52.516;13.564;2022-12-18T01:58:03;102677.53;;;-6.22;99.29
23473;BME280;11909;52.516;13.564;2022-12-18T02:00:32;102682.03;;;-6.34;98.20
23473;BME280;11909;52.516;13.564;2022-12-18T02:03:01;102676.56;;;-6.32;98.83
23473;BME280;11909;52.516;13.564;2022-12-18T02:05:35;102678.59;;;-6.13;97.99
23473;BME280;11909;52.516;13.564;2022-12-18T02:08:10;102675.69;;;-6.21;97.86
23473;BME280;11909;52.516;13.564;2022-12-18T02:10:46;102688.59;;;-6.26;97.36
23473;BME280;11909;52.516;13.564;2022-12-18T02:13:20;102690.41;;;-6.27;97.17
23473;BME280;11909;52.516;13.564;2022-12-18T02:15:56;102696.22;;;-6.33;97.17
23473;BME280;11909;52.516;13.564;2022-12-18T02:18:28;102690.47;;;-6.63;97.94
23473;BME280;11909;52.516;13.564;2022-12-18T02:21:02;102692.41;;;-6.65;98.39
23473;BME280;11909;52.516;13.564;2022-12-18T02:23:46;102697.66;;;-6.52;98.54
23473;BME280;11909;52.516;13.564;2022-12-18T02:26:22;102690.72;;;-6.66;98.27
23473;BME280;11909;52.516;13.564;2022-12-18T02:28:57;102691.81;;;-6.68;98.25
23473;BME280;11909;52.516;13.564;2022-12-18T02:31:29;102694.84;;;-6.62;98.37
23473;BME280;11909;52.516;13.564;2022-12-18T02:34:00;102703.22;;;-6.66;98.24
23473;BME280;11909;52.516;13.564;2022-12-18T02:36:29;102699.94;;;-6.70;98.29
23473;BME280;11909;52.516;13.564;2022-12-18T02:39:00;102701.72;;;-6.70;98.24
23473;BME280;11909;52.516;13.564;2022-12-18T02:41:30;102704.31;;;-6.69;98.04
23473;BME280;11909;52.516;13.564;2022-12-18T02:44:01;102695.94;;;-6.64;98.36
23473;BME280;11909;52.516;13.564;2022-12-18T02:46:36;102706.09;;;-6.69;98.90
23473;BME280;11909;52.516;13.564;2022-12-18T02:49:15;102719.00;;;-6.63;97.43
23473;BME280;11909;52.516;13.564;2022-12-18T02:51:53;102721.78;;;-6.76;97.11
23473;BME280;11909;52.516;13.564;2022-12-18T02:54:38;102717.16;;;-6.74;97.64
23473;BME280;11909;52.516;13.564;2022-12-18T02:57:16;102727.94;;;-6.75;97.51
23473;BME280;11909;52.516;13.564;2022-12-18T02:59:54;102723.88;;;-6.68;97.58
23473;BME280;11909;52.516;13.564;2022-12-18T03:02:28;102731.00;;;-6.69;97.64
23473;BME280;11909;52.516;13.564;2022-12-18T03:05:06;102737.09;;;-6.67;97.21
23473;BME280;11909;52.516;13.564;2022-12-18T03:07:38;102731.88;;;-6.68;97.07
23473;BME280;11909;52.516;13.564;2022-12-18T03:10:09;102729.81;;;-6.65;97.25
23473;BME280;11909;52.516;13.564;2022-12-18T03:12:43;102724.06;;;-6.71;96.77
23473;BME280;11909;52.516;13.564;2022-12-18T03:15:16;102720.31;;;-6.80;97.44
23473;BME280;11909;52.516;13.564;2022-12-18T03:17:49;102724.78;;;-6.81;97.91
23473;BME280;11909;52.516;13.564;2022-12-18T03:20:21;102727.44;;;-6.81;98.53
23473;BME280;11909;52.516;13.564;2022-12-18T03:22:51;102721.53;;;-6.73;98.32
23473;BME280;11909;52.516;13.564;2022-12-18T03:25:21;102725.28;;;-6.75;98.29
23473;BME280;11909;52.516;13.564;2022-12-18T03:27:53;102729.41;;;-6.71;97.60
23473;BME280;11909;52.516;13.564;2022-12-18T03:30:25;102739.09;;;-6.82;97.64
23473;BME280;11909;52.516;13.564;2022-12-18T03:32:58;102727.13;;;-6.76;97.88
23473;BME280;11909;52.516;13.564;2022-12-18T03:35:29;102732.09;;;-6.71;98.01
23473;BME280;11909;52.516;13.564;2022-12-18T03:37:59;102732.47;;;-6.65;97.39
23473;BME280;11909;52.516;13.564;2022-12-18T03:40:31;102721.94;;;-6.66;97.17
23473;BME280;11909;52.516;13.564;2022-12-18T03:43:05;102726.16;;;-6.64;97.09
23473;BME280;11909;52.516;13.564;2022-12-18T03:45:39;102713.53;;;-6.73;97.42
23473;BME280;11909;52.516;13.564;2022-12-18T03:48:13;102727.69;;;-6.84;97.25
23473;BME280;11909;52.516;13.564;2022-12-18T03:50:47;102722.97;;;-6.80;97.60
23473;BME280;11909;52.516;13.564;2022-12-18T03:53:23;102728.19;;;-6.79;97.75
23473;BME280;11909;52.516;13.564;2022-12-18T03:55:55;102727.59;;;-6.71;97.44
23473;BME280;11909;52.516;13.564;2022-12-18T03:58:26;102736.78;;;-6.86;96.92
23473;BME280;11909;52.516;13.564;2022-12-18T04:00:57;102740.16;;;-6.84;97.39
23473;BME280;11909;52.516;13.564;2022-12-18T04:03:28;102742.41;;;-6.78;97.54
23473;BME280;11909;52.516;13.564;2022-12-18T04:05:59;102742.84;;;-6.84;97.46
23473;BME280;11909;52.516;13.564;2022-12-18T04:08:28;102742.97;;;-6.86;96.56
23473;BME280;11909;52.516;13.564;2022-12-18T04:10:56;102736.59;;;-6.96;96.61
23473;BME280;11909;52.516;13.564;2022-12-18T04:13:28;102735.41;;;-6.92;96.60
23473;BME280;11909;52.516;13.564;2022-12-18T04:15:56;102732.25;;;-6.97;97.22
23473;BME280;11909;52.516;13.564;2022-12-18T04:18:24;102735.13;;;-7.00;97.44
23473;BME280;11909;52.516;13.564;2022-12-18T04:20:52;102739.91;;;-6.93;97.09
23473;BME280;11909;52.516;13.564;2022-12-18T04:23:21;102735.53;;;-6.94;97.11
23473;BME280;11909;52.516;13.564;2022-12-18T04:25:49;102739.19;;;-6.83;96.35
23473;BME280;11909;52.516;13.564;2022-12-18T04:28:17;102740.41;;;-6.87;96.53
23473;BME280;11909;52.516;13.564;2022-12-18T04:30:46;102754.63;;;-6.87;95.81
23473;BME280;11909;52.516;13.564;2022-12-18T04:33:16;102748.56;;;-6.89;96.08
23473;BME280;11909;52.516;13.564;2022-12-18T04:35:44;102760.53;;;-6.95;96.45
23473;BME280;11909;52.516;13.564;2022-12-18T04:38:12;102762.06;;;-7.03;96.96
23473;BME280;11909;52.516;13.564;2022-12-18T04:40:40;102753.19;;;-7.04;96.77
23473;BME280;11909;52.516;13.564;2022-12-18T04:43:08;102750.09;;;-6.98;97.48
23473;BME280;11909;52.516;13.564;2022-12-18T04:45:37;102753.81;;;-7.00;96.74
23473;BME280;11909;52.516;13.564;2022-12-18T04:48:07;102763.19;;;-6.95;96.47
23473;BME280;11909;52.516;13.564;2022-12-18T04:50:35;102758.16;;;-7.11;97.06
23473;BME280;11909;52.516;13.564;2022-12-18T04:53:03;102762.75;;;-7.13;97.66
23473;BME280;11909;52.516;13.564;2022-12-18T04:55:31;102758.09;;;-6.98;97.47
23473;BME280;11909;52.516;13.564;2022-12-18T04:57:58;102752.84;;;-6.99;97.52
23473;BME280;11909;52.516;13.564;2022-12-18T05:00:26;102760.81;;;-7.11;97.45
23473;BME280;11909;52.516;13.564;2022-12-18T05:02:54;102753.06;;;-7.14;97.54
23473;BME280;11909;52.516;13.564;2022-12-18T05:05:23;102769.16;;;-7.15;97.74
23473;BME280;11909;52.516;13.564;2022-12-18T05:07:51;102769.56;;;-7.09;97.69
23473;BME280;11909;52.516;13.564;2022-12-18T05:10:19;102767.34;;;-7.15;98.11
23473;BME280;11909;52.516;13.564;2022-12-18T05:12:46;102765.19;;;-7.10;98.12
23473;BME280;11909;52.516;13.564;2022-12-18T05:15:28;102756.72;;;-7.03;97.65
23473;BME280;11909;52.516;13.564;2022-12-18T05:17:56;102766.13;;;-6.86;97.65
23473;BME280;11909;52.516;13.564;2022-12-18T05:20:26;102774.63;;;-6.93;96.33
23473;BME280;11909;52.516;13.564;2022-12-18T05:22:55;102775.81;;;-6.97;97.00
23473;BME280;11909;52.516;13.564;2022-12-18T05:25:23;102785.63;;;-6.97;97.30
23473;BME280;11909;52.516;13.564;2022-12-18T05:27:51;102793.94;;;-6.89;97.13
23473;BME280;11909;52.516;13.564;2022-12-18T05:30:18;102797.63;;;-7.03;96.59
23473;BME280;11909;52.516;13.564;2022-12-18T05:32:46;102796.94;;;-6.94;96.44
23473;BME280;11909;52.516;13.564;2022-12-18T05:35:14;102800.56;;;-6.95;96.19
23473;BME280;11909;52.516;13.564;2022-12-18T05:37:43;102796.25;;;-7.09;96.82
23473;BME280;11909;52.516;13.564;2022-12-18T05:40:11;102799.91;;;-7.10;97.13
23473;BME280;11909;52.516;13.564;2022-12-18T05:42:39;102804.78;;;-7.03;97.06
23473;BME280;11909;52.516;13.564;2022-12-18T05:45:07;102810.91;;;-7.14;97.38
23473;BME280;11909;52.516;13.564;2022-12-18T05:47:35;102813.50;;;-7.26;98.00
23473;BME280;11909;52.516;13.564;2022-12-18T05:50:04;102811.56;;;-7.24;98.35
23473;BME280;11909;52.516;13.564;2022-12-18T05:52:32;102807.41;;;-7.15;98.55
23473;BME280;11909;52.516;13.564;2022-12-18T05:55:01;102805.66;;;-7.16;98.36
23473;BME280;11909;52.516;13.564;2022-12-18T05:57:28;102808.97;;;-7.12;98.74
23473;BME280;11909;52.516;13.564;2022-12-18T05:59:56;102813.34;;;-7.11;97.52
23473;BME280;11909;52.516;13.564;2022-12-18T06:02:24;102812.19;;;-7.20;98.62
23473;BME280;11909;52.516;13.564;2022-12-18T06:04:51;102818.13;;;-7.03;98.72
23473;BME280;11909;52.516;13.564;2022-12-18T06:07:19;102820.28;;;-6.84;97.86
23473;BME280;11909;52.516;13.564;2022-12-18T06:09:47;102816.69;;;-6.96;97.81
23473;BME280;11909;52.516;13.564;2022-12-18T06:12:16;102821.59;;;-6.90;97.54
23473;BME280;11909;52.516;13.564;2022-12-18T06:14:43;102826.94;;;-6.90;97.61
23473;BME280;11909;52.516;13.564;2022-12-18T06:17:11;102821.53;;;-7.01;97.14
23473;BME280;11909;52.516;13.564;2022-12-18T06:19:39;102823.09;;;-7.23;98.82
23473;BME280;11909;52.516;13.564;2022-12-18T06:22:06;102825.09;;;-7.14;98.35
23473;BME280;11909;52.516;13.564;2022-12-18T06:24:34;102831.41;;;-7.15;98.76
23473;BME280;11909;52.516;13.564;2022-12-18T06:27:02;102832.44;;;-7.04;97.96
23473;BME280;11909;52.516;13.564;2022-12-18T06:29:31;102835.09;;;-7.04;97.88
23473;BME280;11909;52.516;13.564;2022-12-18T06:31:58;102838.50;;;-7.02;98.12
23473;BME280;11909;52.516;13.564;2022-12-18T06:34:26;102839.53;;;-6.92;98.33
23473;BME280;11909;52.516;13.564;2022-12-18T06:36:54;102852.22;;;-6.83;97.37
23473;BME280;11909;52.516;13.564;2022-12-18T06:39:21;102854.59;;;-6.91;97.94
23473;BME280;11909;52.516;13.564;2022-12-18T06:41:49;102856.41;;;-6.92;97.86
23473;BME280;11909;52.516;13.564;2022-12-18T06:44:17;102853.56;;;-7.01;98.06
23473;BME280;11909;52.516;13.564;2022-12-18T06:46:46;102861.59;;;-7.14;98.70
23473;BME280;11909;52.516;13.564;2022-12-18T06:49:14;102867.09;;;-6.92;97.95
23473;BME280;11909;52.516;13.564;2022-12-18T06:51:42;102865.84;;;-6.99;98.00
23473;BME280;11909;52.516;13.564;2022-12-18T06:54:10;102869.03;;;-6.94;97.97
23473;BME280;11909;52.516;13.564;2022-12-18T06:56:38;102871.25;;;-6.87;98.05
23473;BME280;11909;52.516;13.564;2022-12-18T06:59:06;102877.97;;;-6.82;97.27
23473;BME280;11909;52.516;13.564;2022-12-18T07:01:33;102886.81;;;-6.81;97.70
23473;BME280;11909;52.516;13.564;2022-12-18T07:04:03;102885.63;;;-6.77;96.47
23473;BME280;11909;52.516;13.564;2022-12-18T07:06:30;102889.59;;;-6.83;96.59
23473;BME280;11909;52.516;13.564;2022-12-18T07:08:58;102889.41;;;-6.93;96.88
23473;BME280;11909;52.516;13.564;2022-12-18T07:11:26;102890.41;;;-7.07;97.43
23473;BME280;11909;52.516;13.564;2022-12-18T07:13:53;102871.41;;;-7.02;98.36
23473;BME280;11909;52.516;13.564;2022-12-18T07:16:22;102870.50;;;-6.89;97.74
23473;BME280;11909;52.516;13.564;2022-12-18T07:18:51;102876.84;;;-6.66;97.33
23473;BME280;11909;52.516;13.564;2022-12-18T07:21:21;102869.06;;;-6.82;97.28
23473;BME280;11909;52.516;13.564;2022-12-18T07:23:49;102873.25;;;-6.78;97.06
23473;BME280;11909;52.516;13.564;2022-12-18T07:26:18;102881.78;;;-6.73;96.53
23473;BME280;11909;52.516;13.564;2022-12-18T07:28:46;102890.28;;;-7.05;96.80
23473;BME280;11909;52.516;13.564;2022-12-18T07:31:16;102896.22;;;-6.88;96.97
23473;BME280;11909;52.516;13.564;2022-12-18T07:33:45;102889.94;;;-6.87;96.71
23473;BME280;11909;52.516;13.564;2022-12-18T07:36:13;102893.50;;;-7.00;97.07
23473;BME280;11909;52.516;13.564;2022-12-18T07:38:43;102885.03;;;-6.94;96.65
23473;BME280;11909;52.516;13.564;2022-12-18T07:41:12;102877.13;;;-6.95;97.18
23473;BME280;11909;52.516;13.564;2022-12-18T07:43:41;102884.22;;;-7.07;97.20
23473;BME280;11909;52.516;13.564;2022-12-18T07:46:10;102891.06;;;-7.03;97.27
23473;BME280;11909;52.516;13.564;2022-12-18T07:48:40;102883.25;;;-7.06;97.53
23473;BME280;11909;52.516;13.564;2022-12-18T07:51:12;102884.53;;;-6.99;97.37
23473;BME280;11909;52.516;13.564;2022-12-18T07:53:40;102889.50;;;-6.94;97.53
23473;BME280;11909;52.516;13.564;2022-12-18T07:56:11;102894.75;;;-6.93;97.58
23473;BME280;11909;52.516;13.564;2022-12-18T07:58:57;102888.63;;;-6.82;97.74
23473;BME280;11909;52.516;13.564;2022-12-18T08:01:25;102889.03;;;-6.75;97.35
23473;BME280;11909;52.516;13.564;2022-12-18T08:03:53;102886.47;;;-6.77;97.65
23473;BME280;11909;52.516;13.564;2022-12-18T08:06:21;102897.56;;;-6.70;97.65
23473;BME280;11909;52.516;13.564;2022-12-18T08:08:51;102891.03;;;-6.66;97.53
23473;BME280;11909;52.516;13.564;2022-12-18T08:11:20;102895.25;;;-6.50;96.83
23473;BME280;11909;52.516;13.564;2022-12-18T08:13:48;102892.63;;;-6.63;96.29
23473;BME280;11909;52.516;13.564;2022-12-18T08:16:17;102894.78;;;-6.68;96.68
23473;BME280;11909;52.516;13.564;2022-12-18T08:18:46;102895.81;;;-6.58;96.53
23473;BME280;11909;52.516;13.564;2022-12-18T08:21:16;102895.72;;;-6.56;96.52
23473;BME280;11909;52.516;13.564;2022-12-18T08:23:46;102894.75;;;-6.55;96.55
23473;BME280;11909;52.516;13.564;2022-12-18T08:26:14;102890.78;;;-6.63;96.46
23473;BME280;11909;52.516;13.564;2022-12-18T08:28:44;102898.94;;;-6.64;96.89
23473;BME280;11909;52.516;13.564;2022-12-18T08:31:12;102902.44;;;-6.64;97.05
23473;BME280;11909;52.516;13.564;2022-12-18T08:33:40;102904.44;;;-6.79;97.53
23473;BME280;11909;52.516;13.564;2022-12-18T08:36:09;102900.47;;;-6.73;98.60
23473;BME280;11909;52.516;13.564;2022-12-18T08:38:37;102895.16;;;-6.62;99.09
23473;BME280;11909;52.516;13.564;2022-12-18T08:41:06;102899.94;;;-6.54;98.89
23473;BME280;11909;52.516;13.564;2022-12-18T08:43:34;102897.28;;;-6.54;98.65
23473;BME280;11909;52.516;13.564;2022-12-18T08:46:22;102908.19;;;-6.57;98.50
23473;BME280;11909;52.516;13.564;2022-12-18T08:48:51;102907.63;;;-6.49;98.95
23473;BME280;11909;52.516;13.564;2022-12-18T08:51:19;102914.69;;;-6.48;98.77
23473;BME280;11909;52.516;13.564;2022-12-18T08:53:47;102912.50;;;-6.43;98.72
23473;BME280;11909;52.516;13.564;2022-12-18T08:56:15;102914.41;;;-6.56;99.14
23473;BME280;11909;52.516;13.564;2022-12-18T08:58:43;102909.84;;;-6.67;100.00
23473;BME280;11909;52.516;13.564;2022-12-18T09:01:12;102907.69;;;-6.62;100.00
23473;BME280;11909;52.516;13.564;2022-12-18T09:03:41;102917.13;;;-6.45;100.00
23473;BME280;11909;52.516;13.564;2022-12-18T09:06:13;102936.34;;;-6.40;99.39
23473;BME280;11909;52.516;13.564;2022-12-18T09:08:42;102930.38;;;-6.43;99.76
23473;BME280;11909;52.516;13.564;2022-12-18T09:11:14;102928.44;;;-6.41;100.00
23473;BME280;11909;52.516;13.564;2022-12-18T09:13:43;102922.13;;;-6.40;100.00
23473;BME280;11909;52.516;13.564;2022-12-18T09:16:11;102928.09;;;-6.37;100.00
23473;BME280;11909;52.516;13.564;2022-12-18T09:18:39;102937.00;;;-6.25;100.00
23473;BME280;11909;52.516;13.564;2022-12-18T09:21:10;102927.81;;;-6.21;100.00
23473;BME280;11909;52.516;13.564;2022-12-18T09:23:38;102930.59;;;-6.22;100.00
23473;BME280;11909;52.516;13.564;2022-12-18T09:26:06;102931.50;;;-6.35;100.00
23473;BME280;11909;52.516;13.564;2022-12-18T09:28:34;102945.16;;;-6.26;100.00
23473;BME280;11909;52.516;13.564;2022-12-18T09:31:05;102941.78;;;-6.17;100.00
23473;BME280;11909;52.516;13.564;2022-12-18T09:33:34;102948.34;;;-6.21;100.00
23473;BME280;11909;52.516;13.564;2022-12-18T09:36:05;102948.97;;;-6.17;100.00
23473;BME280;11909;52.516;13.564;2022-12-18T09:38:35;102941.56;;;-6.14;100.00
23473;BME280;11909;52.516;13.564;2022-12-18T09:41:05;102939.28;;;-6.07;100.00
23473;BME280;11909;52.516;13.564;2022-12-18T09:43:43;102944.66;;;-5.96;100.00
23473;BME280;11909;52.516;13.564;2022-12-18T09:46:17;102934.66;;;-6.05;100.00
23473;BME280;11909;52.516;13.564;2022-12-18T09:48:49;102925.06;;;-6.08;100.00
23473;BME280;11909;52.516;13.564;2022-12-18T09:51:20;102921.53;;;-6.08;100.00
23473;BME280;11909;52.516;13.564;2022-12-18T09:53:54;102912.31;;;-6.04;100.00
23473;BME280;11909;52.516;13.564;2022-12-18T09:56:25;102902.09;;;-5.99;100.00
23473;BME280;11909;52.516;13.564;2022-12-18T09:58:58;102896.50;;;-6.07;100.00
23473;BME280;11909;52.516;13.564;2022-12-18T10:01:28;102893.72;;;-5.94;100.00
23473;BME280;11909;52.516;13.564;2022-12-18T10:04:09;102894.69;;;-5.95;100.00
23473;BME280;11909;52.516;13.564;2022-12-18T10:06:43;102888.97;;;-5.91;100.00
23473;BME280;11909;52.516;13.564;2022-12-18T10:09:19;102878.78;;;-5.85;100.00
23473;BME280;11909;52.516;13.564;2022-12-18T10:11:53;102871.25;;;-5.80;100.00
23473;BME280;11909;52.516;13.564;2022-12-18T10:14:30;102863.75;;;-5.75;100.00
23473;BME280;11909;52.516;13.564;2022-12-18T10:17:10;102863.34;;;-5.70;100.00
23473;BME280;11909;52.516;13.564;2022-12-18T10:19:46;102858.38;;;-5.64;100.00
23473;BME280;11909;52.516;13.564;2022-12-18T10:22:25;102864.84;;;-5.55;100.00
23473;BME280;11909;52.516;13.564;2022-12-18T10:25:02;102870.78;;;-5.63;100.00
23473;BME280;11909;52.516;13.564;2022-12-18T10:27:32;102864.34;;;-5.49;100.00
23473;BME280;11909;52.516;13.564;2022-12-18T10:30:04;102862.78;;;-5.40;100.00
23473;BME280;11909;52.516;13.564;2022-12-18T10:32:35;102866.78;;;-5.34;100.00
23473;BME280;11909;52.516;13.564;2022-12-18T10:35:04;102869.09;;;-5.41;100.00
23473;BME280;11909;52.516;13.564;2022-12-18T10:37:32;102855.59;;;-5.28;100.00
23473;BME280;11909;52.516;13.564;2022-12-18T10:40:11;102861.31;;;-5.21;100.00
23473;BME280;11909;52.516;13.564;2022-12-18T10:43:03;102861.66;;;-5.26;100.00
23473;BME280;11909;52.516;13.564;2022-12-18T10:45:31;102860.22;;;-5.30;100.00
23473;BME280;11909;52.516;13.564;2022-12-18T10:47:59;102845.72;;;-5.39;100.00
23473;BME280;11909;52.516;13.564;2022-12-18T10:50:29;102846.00;;;-5.30;100.00
23473;BME280;11909;52.516;13.564;2022-12-18T10:53:19;102842.81;;;-5.24;100.00
23473;BME280;11909;52.516;13.564;2022-12-18T10:55:49;102834.03;;;-5.15;100.00
23473;BME280;11909;52.516;13.564;2022-12-18T10:58:24;102842.34;;;-5.29;100.00
23473;BME280;11909;52.516;13.564;2022-12-18T11:01:05;102837.59;;;-5.49;100.00
23473;BME280;11909;52.516;13.564;2022-12-18T11:03:34;102836.72;;;-5.38;100.00
23473;BME280;11909;52.516;13.564;2022-12-18T11:06:05;102821.53;;;-5.49;100.00
23473;BME280;11909;52.516;13.564;2022-12-18T11:08:34;102827.13;;;-5.52;100.00
23473;BME280;11909;52.516;13.564;2022-12-18T11:11:07;102830.53;;;-5.50;100.00
23473;BME280;11909;52.516;13.564;2022-12-18T11:13:42;102828.59;;;-5.48;100.00
23473;BME280;11909;52.516;13.564;2022-12-18T11:16:18;102827.97;;;-5.40;100.00
23473;BME280;11909;52.516;13.564;2022-12-18T11:18:46;102822.00;;;-5.32;100.00
23473;BME280;11909;52.516;13.564;2022-12-18T11:21:14;102820.66;;;-5.38;100.00
23473;BME280;11909;52.516;13.564;2022-12-18T11:23:46;102820.94;;;-5.29;100.00
23473;BME280;11909;52.516;13.564;2022-12-18T11:26:16;102811.41;;;-5.22;100.00
23473;BME280;11909;52.516;13.564;2022-12-18T11:28:46;102816.63;;;-5.21;100.00
23473;BME280;11909;52.516;13.564;2022-12-18T11:31:18;102821.16;;;-5.21;100.00
23473;BME280;11909;52.516;13.564;2022-12-18T11:33:52;102822.84;;;-5.32;100.00
23473;BME280;11909;52.516;13.564;2022-12-18T11:36:44;102830.03;;;-5.32;100.00
23473;BME280;11909;52.516;13.564;2022-12-18T11:39:14;102838.91;;;-5.32;100.00
23473;BME280;11909;52.516;13.564;2022-12-18T11:41:50;102838.56;;;-5.38;100.00
23473;BME280;11909;52.516;13.564;2022-12-18T11:44:43;102835.06;;;-5.50;100.00
23473;BME280;11909;52.516;13.564;2022-12-18T11:47:21;102840.38;;;-5.39;100.00
23473;BME280;11909;52.516;13.564;2022-12-18T11:49:52;102837.59;;;-5.37;100.00
23473;BME280;11909;52.516;13.564;2022-12-18T11:52:25;102839.03;;;-5.33;100.00
23473;BME280;11909;52.516;13.564;2022-12-18T11:54:56;102843.94;;;-5.38;100.00
23473;BME280;11909;52.516;13.564;2022-12-18T11:57:33;102841.97;;;-5.36;100.00
23473;BME280;11909;52.516;13.564;2022-12-18T12:00:12;102846.00;;;-5.30;100.00
23473;BME280;11909;52.516;13.564;2022-12-18T12:03:06;102850.38;;;-5.41;100.00
23473;BME280;11909;52.516;13.564;2022-12-18T12:05:49;102845.47;;;-5.36;100.00
23473;BME280;11909;52.516;13.564;2022-12-18T12:08:26;102845.75;;;-5.27;100.00
23473;BME280;11909;52.516;13.564;2022-12-18T12:11:05;102844.41;;;-5.33;100.00
23473;BME280;11909;52.516;13.564;2022-12-18T12:13:44;102851.56;;;-5.22;100.00
23473;BME280;11909;52.516;13.564;2022-12-18T12:16:17;102867.53;;;-5.32;100.00
23473;BME280;11909;52.516;13.564;2022-12-18T12:19:04;102859.63;;;-5.45;100.00
23473;BME280;11909;52.516;13.564;2022-12-18T12:21:38;102867.41;;;-5.42;100.00
23473;BME280;11909;52.516;13.564;2022-12-18T12:24:20;102872.00;;;-5.33;100.00
23473;BME280;11909;52.516;13.564;2022-12-18T12:27:02;102868.25;;;-5.30;100.00
23473;BME280;11909;52.516;13.564;2022-12-18T12:29:47;102869.69;;;-5.26;100.00
23473;BME280;11909;52.516;13.564;2022-12-18T12:32:28;102868.09;;;-5.17;100.00
23473;BME280;11909;52.516;13.564;2022-12-18T12:35:08;102871.66;;;-5.16;100.00
23473;BME280;11909;52.516;13.564;2022-12-18T12:37:49;102872.75;;;-5.19;100.00
23473;BME280;11909;52.516;13.564;2022-12-18T12:40:20;102868.25;;;-5.19;100.00
23473;BME280;11909;52.516;13.564;2022-12-18T12:43:20;102868.72;;;-5.13;100.00
23473;BME280;11909;52.516;13.564;2022-12-18T12:45:53;102882.13;;;-5.13;100.00
23473;BME280;11909;52.516;13.564;2022-12-18T12:48:37;102884.66;;;-5.12;100.00
23473;BME280;11909;52.516;13.564;2022-12-18T12:51:12;102890.25;;;-5.04;100.00
23473;BME280;11909;52.516;13.564;2022-12-18T12:53:42;102881.25;;;-5.14;100.00
23473;BME280;11909;52.516;13.564;2022-12-18T12:56:13;102886.00;;;-5.06;100.00
23473;BME280;11909;52.516;13.564;2022-12-18T12:58:49;102878.56;;;-5.02;99.80